createdAt,value
2019-02-28T00:01:52.789Z,9.00
2019-02-28T00:04:22.523Z,10.37
2019-02-28T00:06:52.199Z,12.57
2019-02-28T00:09:21.814Z,18.47
2019-02-28T00:11:51.479Z,10.97
2019-02-28T00:14:21.120Z,11.17
2019-02-28T00:16:50.709Z,9.67
2019-02-28T00:19:21.014Z,10.70
2019-02-28T00:21:51.726Z,13.63
2019-02-28T00:24:21.362Z,11.53
2019-02-28T00:26:50.986Z,13.37
2019-02-28T00:29:20.595Z,12.70
2019-02-28T00:31:50.793Z,11.03
2019-02-28T00:34:21.523Z,11.53
2019-02-28T00:36:53.361Z,19.87
2019-02-28T00:39:22.401Z,12.40
2019-02-28T00:41:51.993Z,10.83
2019-02-28T00:44:21.594Z,14.27
2019-02-28T00:46:51.229Z,10.53
2019-02-28T00:49:20.852Z,10.23
2019-02-28T00:51:50.461Z,13.30
2019-02-28T00:54:20.150Z,12.43
2019-02-28T00:56:52.491Z,11.17
2019-02-28T00:59:21.163Z,10.20
2019-02-28T01:01:50.812Z,10.90
2019-02-28T01:04:20.450Z,11.67
2019-02-28T01:06:50.170Z,11.83
2019-02-28T01:09:19.807Z,12.70
2019-02-28T01:11:49.400Z,11.43
2019-02-28T01:14:19.075Z,12.03
2019-02-28T01:16:50.261Z,14.97
2019-02-28T01:19:20.043Z,12.37
2019-02-28T01:21:49.657Z,11.87
2019-02-28T01:24:19.326Z,15.17
2019-02-28T01:26:48.945Z,13.30
2019-02-28T01:29:18.670Z,12.07
2019-02-28T01:31:48.379Z,14.43
2019-02-28T01:34:18.047Z,14.37
2019-02-28T01:36:48.713Z,13.00
2019-02-28T01:39:19.142Z,13.63
2019-02-28T01:41:48.754Z,10.97
2019-02-28T01:44:18.429Z,15.03
2019-02-28T01:46:48.714Z,12.70
2019-02-28T01:49:18.936Z,13.27
2019-02-28T01:51:48.561Z,13.33
2019-02-28T01:54:18.171Z,11.40
2019-02-28T01:56:47.800Z,12.60
2019-02-28T01:59:17.391Z,12.40
2019-02-28T02:01:47.030Z,11.93
2019-02-28T02:04:16.646Z,13.00
2019-02-28T02:06:46.257Z,15.20
2019-02-28T02:09:16.059Z,15.60
2019-02-28T02:11:45.673Z,13.10
2019-02-28T02:14:15.328Z,12.83
2019-02-28T02:16:44.979Z,12.57
2019-02-28T02:19:18.591Z,13.77
2019-02-28T02:21:45.933Z,13.63
2019-02-28T02:24:15.572Z,14.57
2019-02-28T02:26:45.876Z,13.20
2019-02-28T02:29:15.574Z,17.13
2019-02-28T02:31:46.141Z,13.50
2019-02-28T02:34:15.752Z,15.87
2019-02-28T02:36:52.873Z,13.17
2019-02-28T02:39:17.807Z,17.97
2019-02-28T02:41:47.668Z,12.93
2019-02-28T02:44:17.353Z,15.00
2019-02-28T02:46:47.051Z,12.40
2019-02-28T02:49:19.852Z,17.13
2019-02-28T02:51:50.351Z,13.07
2019-02-28T02:54:20.235Z,15.90
2019-02-28T02:56:50.100Z,12.47
2019-02-28T02:59:19.814Z,15.17
2019-02-28T03:01:50.522Z,16.67
2019-02-28T03:04:22.918Z,15.00
2019-02-28T03:06:51.487Z,12.87
2019-02-28T03:09:21.081Z,20.50
2019-02-28T03:11:50.723Z,13.40
2019-02-28T03:14:20.348Z,12.60
2019-02-28T03:16:49.991Z,13.67
2019-02-28T03:19:19.703Z,17.90
2019-02-28T03:21:52.586Z,14.27
2019-02-28T03:24:20.635Z,17.00
2019-02-28T03:26:50.239Z,16.97
2019-02-28T03:29:19.827Z,19.53
2019-02-28T03:31:57.003Z,16.60
2019-02-28T03:34:20.739Z,19.23
2019-02-28T03:36:55.163Z,22.37
2019-02-28T03:39:24.520Z,19.20
2019-02-28T03:41:54.062Z,18.10
2019-02-28T03:44:23.911Z,18.60
2019-02-28T03:46:54.557Z,18.97
2019-02-28T03:49:24.156Z,21.77
2019-02-28T03:51:53.883Z,20.70
2019-02-28T03:54:23.605Z,17.23
2019-02-28T03:56:53.485Z,19.23
2019-02-28T03:59:23.122Z,20.43
2019-02-28T04:01:52.795Z,20.70
2019-02-28T04:04:22.506Z,19.27
2019-02-28T04:06:52.140Z,22.27
2019-02-28T04:09:21.843Z,24.03
2019-02-28T04:11:51.451Z,18.80
2019-02-28T04:14:21.126Z,24.30
2019-02-28T04:16:54.088Z,22.93
2019-02-28T04:19:23.040Z,22.43
2019-02-28T04:21:52.934Z,23.50
2019-02-28T04:24:23.732Z,27.50
2019-02-28T04:26:53.431Z,25.03
2019-02-28T04:29:29.987Z,27.03
2019-02-28T04:31:54.387Z,22.83
2019-02-28T04:34:24.019Z,18.63
2019-02-28T04:36:53.621Z,22.27
2019-02-28T04:39:23.605Z,26.37
2019-02-28T04:41:53.351Z,21.73
2019-02-28T04:44:23.006Z,28.13
2019-02-28T04:46:52.586Z,26.87
2019-02-28T04:49:22.846Z,24.07
2019-02-28T04:51:52.638Z,27.00
2019-02-28T04:54:24.502Z,23.40
2019-02-28T04:56:53.645Z,23.80
2019-02-28T04:59:23.373Z,26.40
2019-02-28T05:01:53.008Z,36.53
2019-02-28T05:04:22.613Z,27.80
2019-02-28T05:06:55.113Z,28.60
2019-02-28T05:09:23.599Z,35.80
2019-02-28T05:11:53.258Z,33.53
2019-02-28T05:14:23.721Z,33.17
2019-02-28T05:16:54.165Z,32.80
2019-02-28T05:19:24.814Z,37.57
2019-02-28T05:21:54.438Z,32.93
2019-02-28T05:24:24.113Z,31.37
2019-02-28T05:26:53.753Z,43.13
2019-02-28T05:29:23.368Z,32.00
2019-02-28T05:31:53.081Z,44.83
2019-02-28T05:34:22.777Z,45.00
2019-02-28T05:36:52.487Z,44.23
2019-02-28T05:39:22.077Z,37.13
2019-02-28T05:41:51.697Z,39.83
2019-02-28T05:44:21.487Z,36.93
2019-02-28T05:46:51.152Z,44.40
2019-02-28T05:49:20.822Z,40.57
2019-02-28T05:51:50.512Z,36.63
2019-02-28T05:54:20.117Z,37.43
2019-02-28T05:56:49.765Z,40.93
2019-02-28T05:59:19.442Z,41.37
2019-02-28T06:01:49.107Z,38.47
2019-02-28T06:04:18.773Z,37.30
2019-02-28T06:06:51.295Z,41.90
2019-02-28T06:09:19.872Z,43.93
2019-02-28T06:11:49.493Z,43.77
2019-02-28T06:14:20.239Z,44.70
2019-02-28T06:16:49.866Z,46.17
2019-02-28T06:19:20.323Z,45.67
2019-02-28T06:21:50.119Z,50.90
2019-02-28T06:24:19.747Z,48.43
2019-02-28T06:26:49.365Z,47.23
2019-02-28T06:29:19.016Z,41.47
2019-02-28T06:31:49.455Z,46.67
2019-02-28T06:34:19.267Z,44.87
2019-02-28T06:36:49.060Z,50.27
2019-02-28T06:39:18.688Z,47.23
2019-02-28T06:41:48.349Z,48.90
2019-02-28T06:44:18.032Z,45.20
2019-02-28T06:46:47.704Z,45.17
2019-02-28T06:49:17.309Z,49.63
2019-02-28T06:51:48.343Z,43.53
2019-02-28T06:54:18.287Z,55.83
2019-02-28T06:56:47.920Z,47.47
2019-02-28T06:59:17.538Z,52.73
2019-02-28T07:01:47.183Z,54.67
2019-02-28T07:04:16.838Z,55.60
2019-02-28T07:06:46.561Z,54.37
2019-02-28T07:09:16.257Z,53.60
2019-02-28T07:11:45.975Z,60.63
2019-02-28T07:14:15.599Z,53.47
2019-02-28T07:16:45.329Z,57.10
2019-02-28T07:19:15.013Z,55.87
2019-02-28T07:21:44.730Z,57.10
2019-02-28T07:24:14.353Z,61.00
2019-02-28T07:26:44.057Z,60.60
2019-02-28T07:29:13.702Z,57.20
2019-02-28T07:31:43.404Z,63.63
2019-02-28T07:34:13.099Z,49.20
2019-02-28T07:36:44.801Z,61.17
2019-02-28T07:39:15.059Z,60.13
2019-02-28T07:41:44.774Z,68.80
2019-02-28T07:44:14.433Z,62.87
2019-02-28T07:46:44.141Z,62.67
2019-02-28T07:49:13.828Z,54.07
2019-02-28T07:51:43.437Z,62.63
2019-02-28T07:54:15.866Z,66.13
2019-02-28T07:56:44.409Z,48.87
2019-02-28T07:59:14.227Z,59.50
2019-02-28T08:01:43.837Z,67.77
2019-02-28T08:04:17.998Z,66.03
2019-02-28T08:06:44.820Z,65.70
2019-02-28T08:09:28.997Z,60.47
2019-02-28T08:11:58.730Z,68.90
2019-02-28T08:14:28.503Z,66.50
2019-02-28T08:16:58.155Z,66.73
2019-02-28T08:19:28.178Z,67.67
2019-02-28T08:21:57.970Z,69.87
2019-02-28T08:24:27.586Z,68.57
2019-02-28T08:26:57.205Z,68.67
2019-02-28T08:29:26.823Z,69.17
2019-02-28T08:31:57.543Z,73.43
2019-02-28T08:34:27.595Z,76.03
2019-02-28T08:36:57.336Z,74.30
2019-02-28T08:39:27.052Z,73.33
2019-02-28T08:42:02.862Z,72.67
2019-02-28T08:44:28.195Z,75.43
2019-02-28T08:46:57.881Z,75.00
2019-02-28T08:49:27.488Z,72.97
2019-02-28T08:51:57.144Z,72.93
2019-02-28T08:54:27.518Z,80.07
2019-02-28T08:56:57.378Z,73.37
2019-02-28T08:59:27.028Z,77.47
2019-02-28T09:01:56.718Z,85.43
2019-02-28T09:04:26.383Z,72.47
2019-02-28T09:06:56.099Z,75.70
2019-02-28T09:09:25.818Z,71.47
2019-02-28T09:11:58.025Z,67.43
2019-02-28T09:14:26.786Z,68.47
2019-02-28T09:16:56.494Z,71.90
2019-02-28T09:19:26.233Z,74.87
2019-02-28T09:21:55.922Z,81.37
2019-02-28T09:24:26.084Z,73.87
2019-02-28T09:26:55.807Z,73.73
2019-02-28T09:29:25.491Z,72.13
2019-02-28T09:31:56.252Z,75.27
2019-02-28T09:34:25.990Z,77.73
2019-02-28T09:36:56.814Z,71.37
2019-02-28T09:39:26.586Z,72.83
2019-02-28T09:41:56.214Z,58.70
2019-02-28T09:44:25.932Z,76.00
2019-02-28T09:46:55.651Z,67.03
2019-02-28T09:49:25.364Z,67.40
2019-02-28T09:51:55.041Z,68.37
2019-02-28T09:54:25.546Z,70.33
2019-02-28T09:56:55.314Z,70.73
2019-02-28T09:59:24.910Z,72.23
2019-02-28T10:02:01.137Z,77.47
2019-02-28T10:04:27.330Z,73.23
2019-02-28T10:06:57.208Z,71.97
2019-02-28T10:09:26.833Z,75.23
2019-02-28T10:11:56.453Z,93.07
2019-02-28T10:14:28.858Z,69.47
2019-02-28T10:16:58.737Z,67.67
2019-02-28T10:19:28.465Z,69.33
2019-02-28T10:21:58.220Z,71.80
2019-02-28T10:24:31.428Z,72.30
2019-02-28T10:27:00.591Z,81.53
2019-02-28T10:29:30.242Z,73.27
2019-02-28T10:31:59.887Z,67.20
2019-02-28T10:34:29.553Z,75.93
2019-02-28T10:36:59.228Z,72.07
2019-02-28T10:39:28.857Z,72.10
2019-02-28T10:42:01.579Z,77.20
2019-02-28T10:44:30.687Z,70.77
2019-02-28T10:47:01.328Z,57.67
2019-02-28T10:49:31.972Z,73.57
2019-02-28T10:52:01.637Z,74.93
2019-02-28T10:54:31.363Z,75.67
2019-02-28T10:57:03.055Z,72.70
2019-02-28T10:59:32.787Z,77.33
2019-02-28T11:02:02.503Z,81.43
2019-02-28T11:04:32.243Z,74.70
2019-02-28T11:07:02.224Z,64.40
2019-02-28T11:09:33.077Z,69.57
2019-02-28T11:12:02.845Z,86.93
2019-02-28T11:14:35.571Z,73.10
2019-02-28T11:17:04.030Z,65.90
2019-02-28T11:19:33.872Z,62.77
2019-02-28T11:22:04.934Z,77.67
2019-02-28T11:24:36.160Z,82.13
2019-02-28T11:27:07.808Z,67.60
2019-02-28T11:29:37.567Z,70.90
2019-02-28T11:32:07.368Z,73.37
2019-02-28T11:34:37.039Z,67.93
2019-02-28T11:37:08.941Z,58.97
2019-02-28T11:39:38.992Z,70.33
2019-02-28T11:42:08.759Z,63.87
2019-02-28T11:44:38.463Z,73.20
2019-02-28T11:47:10.826Z,67.27
2019-02-28T11:49:39.591Z,63.53
2019-02-28T11:52:09.317Z,69.57
2019-02-28T11:54:38.948Z,57.33
2019-02-28T11:57:08.766Z,72.10
2019-02-28T11:59:38.500Z,72.07
2019-02-28T12:02:08.391Z,65.57
2019-02-28T12:04:40.460Z,67.50
2019-02-28T12:07:09.453Z,64.33
2019-02-28T12:09:39.118Z,52.43
2019-02-28T12:12:10.395Z,52.97
2019-02-28T12:14:40.139Z,72.43
2019-02-28T12:17:09.948Z,60.37
2019-02-28T12:19:39.688Z,66.80
2019-02-28T12:22:12.033Z,60.43
2019-02-28T12:24:40.608Z,69.10
2019-02-28T12:27:10.245Z,64.83
2019-02-28T12:29:39.941Z,65.77
2019-02-28T12:32:11.222Z,65.00
2019-02-28T12:34:41.039Z,63.37
2019-02-28T12:37:11.734Z,92.80
2019-02-28T12:39:41.371Z,62.63
2019-02-28T12:42:11.227Z,62.00
2019-02-28T12:44:41.315Z,68.10
2019-02-28T12:47:11.049Z,65.47
2019-02-28T12:49:40.684Z,59.17
2019-02-28T12:52:11.270Z,62.67
2019-02-28T12:54:41.683Z,70.70
2019-02-28T12:57:11.659Z,54.17
2019-02-28T12:59:41.787Z,64.10
2019-02-28T13:02:12.944Z,56.97
2019-02-28T13:04:42.669Z,63.00
2019-02-28T13:07:12.380Z,63.20
2019-02-28T13:09:42.086Z,64.83
2019-02-28T13:12:12.209Z,64.27
2019-02-28T13:14:41.923Z,63.10
2019-02-28T13:17:11.603Z,54.93
2019-02-28T13:20:02.123Z,64.43
2019-02-28T13:22:32.756Z,64.40
2019-02-28T13:25:02.430Z,66.23
2019-02-28T13:27:32.364Z,69.13
2019-02-28T13:30:05.436Z,65.53
2019-02-28T13:32:38.200Z,64.67
2019-02-28T13:35:07.444Z,57.33
2019-02-28T13:37:40.713Z,61.20
2019-02-28T13:40:09.778Z,59.97
2019-02-28T13:42:40.753Z,63.13
2019-02-28T13:45:14.810Z,59.60
2019-02-28T13:47:46.409Z,62.97
2019-02-28T13:50:22.071Z,62.47
2019-02-28T13:52:53.252Z,78.43
2019-02-28T13:55:23.163Z,65.10
2019-02-28T13:57:52.839Z,50.43
2019-02-28T14:00:24.629Z,64.40
2019-02-28T14:02:56.381Z,69.90
2019-02-28T14:05:26.138Z,64.70
2019-02-28T14:07:55.802Z,72.50
2019-02-28T14:10:29.442Z,71.10
2019-02-28T14:12:58.182Z,70.70
2019-02-28T14:15:31.185Z,69.73
2019-02-28T14:18:00.815Z,69.37
2019-02-28T14:20:30.544Z,70.07
2019-02-28T14:23:00.196Z,64.33
2019-02-28T14:25:29.801Z,63.27
2019-02-28T14:28:00.295Z,66.83
2019-02-28T14:30:31.891Z,74.03
2019-02-28T14:33:01.575Z,57.97
2019-02-28T14:35:33.903Z,75.73
2019-02-28T14:38:05.563Z,68.53
2019-02-28T14:40:35.335Z,60.40
2019-02-28T14:43:05.197Z,70.83
2019-02-28T14:45:35.349Z,80.70
2019-02-28T14:48:06.166Z,62.63
2019-02-28T14:50:35.816Z,73.20
2019-02-28T14:53:05.905Z,74.03
2019-02-28T14:55:37.415Z,67.53
2019-02-28T14:58:06.999Z,69.17
2019-02-28T15:00:39.133Z,76.50
2019-02-28T15:03:08.430Z,68.60
2019-02-28T15:05:38.307Z,67.83
2019-02-28T15:08:08.110Z,75.10
2019-02-28T15:10:38.000Z,72.73
2019-02-28T15:13:07.643Z,68.47
2019-02-28T15:15:37.524Z,77.97
2019-02-28T15:18:11.029Z,86.23
2019-02-28T15:20:38.787Z,77.17
2019-02-28T15:23:08.473Z,85.87
2019-02-28T15:25:38.231Z,75.27
2019-02-28T15:28:10.686Z,87.40
2019-02-28T15:30:39.652Z,77.50
2019-02-28T15:33:09.293Z,73.60
2019-02-28T15:35:39.072Z,84.60
2019-02-28T15:38:10.264Z,82.80
2019-02-28T15:40:40.622Z,81.57
2019-02-28T15:43:10.394Z,79.60
2019-02-28T15:45:40.034Z,71.90
2019-02-28T15:48:09.718Z,70.37
2019-02-28T15:50:39.423Z,72.90
2019-02-28T15:53:13.172Z,83.93
2019-02-28T15:55:42.771Z,79.57
2019-02-28T15:58:12.579Z,73.17
2019-02-28T16:00:42.232Z,106.00
2019-02-28T16:03:16.585Z,79.77
2019-02-28T16:05:44.999Z,75.93
2019-02-28T16:08:15.713Z,79.50
2019-02-28T16:10:52.960Z,81.63
2019-02-28T16:13:16.703Z,78.20
2019-02-28T16:15:49.162Z,86.07
2019-02-28T16:18:17.769Z,87.47
2019-02-28T16:20:47.463Z,77.63
2019-02-28T16:23:17.205Z,83.80
2019-02-28T16:25:47.771Z,84.97
2019-02-28T16:28:17.494Z,79.93
2019-02-28T16:30:47.187Z,90.23
2019-02-28T16:33:16.813Z,92.17
2019-02-28T16:35:46.768Z,82.70
2019-02-28T16:38:17.801Z,83.90
2019-02-28T16:40:47.509Z,86.50
2019-02-28T16:43:17.302Z,79.83
2019-02-28T16:45:49.646Z,81.17
2019-02-28T16:48:19.276Z,82.10
2019-02-28T16:50:50.712Z,87.00
2019-02-28T16:53:20.378Z,79.50
2019-02-28T16:55:50.966Z,76.93
2019-02-28T16:58:21.849Z,76.10
2019-02-28T17:00:52.163Z,74.57
2019-02-28T17:03:21.795Z,74.27
2019-02-28T17:05:51.537Z,75.80
2019-02-28T17:08:21.212Z,82.10
2019-02-28T17:10:50.950Z,82.27
2019-02-28T17:13:41.729Z,83.77
2019-02-28T17:16:27.937Z,76.27
2019-02-28T17:18:57.525Z,75.00
2019-02-28T17:21:27.223Z,73.80
2019-02-28T17:23:56.871Z,76.00
2019-02-28T17:26:45.814Z,75.40
2019-02-28T17:29:30.908Z,69.80
2019-02-28T17:32:00.602Z,74.07
2019-02-28T17:34:30.264Z,86.47
2019-02-28T17:36:59.890Z,73.77
2019-02-28T17:39:29.538Z,78.63
2019-02-28T17:42:08.120Z,81.60
2019-02-28T17:44:49.275Z,94.37
2019-02-28T17:47:48.342Z,85.33
2019-02-28T17:50:48.122Z,79.83
2019-02-28T17:53:41.962Z,75.83
2019-02-28T17:56:52.769Z,90.37
2019-02-28T17:59:38.735Z,74.87
2019-02-28T18:02:23.028Z,76.13
2019-02-28T18:05:06.583Z,81.33
2019-02-28T18:07:57.817Z,88.27
2019-02-28T18:11:09.603Z,85.77
2019-02-28T18:14:17.059Z,90.50
2019-02-28T18:17:32.369Z,91.80
2019-02-28T18:20:37.406Z,88.30
2019-02-28T18:23:34.390Z,84.30
2019-02-28T18:26:38.694Z,88.87
2019-02-28T18:29:24.561Z,88.43
2019-02-28T18:31:57.071Z,93.03
2019-02-28T18:34:27.730Z,92.33
2019-02-28T18:36:57.551Z,92.80
2019-02-28T18:39:27.159Z,89.97
2019-02-28T18:41:56.892Z,82.33
2019-02-28T18:44:26.556Z,85.90
2019-02-28T18:46:56.246Z,80.17
2019-02-28T18:49:26.636Z,87.83
2019-02-28T18:51:57.238Z,92.17
2019-02-28T18:54:26.959Z,84.77
2019-02-28T18:56:56.679Z,89.17
2019-02-28T18:59:28.679Z,91.63
2019-02-28T19:01:58.332Z,99.33
2019-02-28T19:04:28.127Z,92.73
2019-02-28T19:06:57.835Z,89.23
2019-02-28T19:09:27.466Z,108.13
2019-02-28T19:11:57.199Z,87.30
2019-02-28T19:14:26.852Z,82.43
2019-02-28T19:16:56.514Z,85.60
2019-02-28T19:19:26.265Z,95.90
2019-02-28T19:21:55.956Z,98.93
2019-02-28T19:24:25.679Z,106.37
2019-02-28T19:26:55.333Z,104.47
2019-02-28T19:29:24.952Z,96.20
2019-02-28T19:31:54.553Z,82.80
2019-02-28T19:34:24.195Z,90.57
2019-02-28T19:36:53.826Z,74.37
2019-02-28T19:39:23.509Z,82.63
2019-02-28T19:41:53.152Z,70.50
2019-02-28T19:44:22.793Z,79.47
2019-02-28T19:46:52.495Z,85.67
2019-02-28T19:49:22.198Z,91.97
2019-02-28T19:51:51.846Z,78.40
2019-02-28T19:54:21.463Z,75.13
2019-02-28T19:56:51.079Z,78.60
2019-02-28T19:59:20.747Z,86.67
2019-02-28T20:01:50.374Z,83.37
2019-02-28T20:04:20.033Z,72.40
2019-02-28T20:06:49.746Z,78.93
2019-02-28T20:09:19.443Z,88.50
2019-02-28T20:11:49.150Z,97.10
2019-02-28T20:14:19.552Z,86.57
2019-02-28T20:16:50.200Z,99.40
2019-02-28T20:19:19.996Z,94.57
2019-02-28T20:21:49.634Z,99.50
2019-02-28T20:24:19.527Z,91.83
2019-02-28T20:26:49.219Z,92.07
2019-02-28T20:29:19.233Z,97.10
2019-02-28T20:31:49.115Z,95.90
2019-02-28T20:34:18.793Z,101.53
2019-02-28T20:36:48.514Z,101.00
2019-02-28T20:39:18.140Z,90.47
2019-02-28T20:41:47.958Z,90.67
2019-02-28T20:44:17.696Z,102.17
2019-02-28T20:46:47.432Z,93.33
2019-02-28T20:49:17.142Z,96.10
2019-02-28T20:51:54.871Z,103.27
2019-02-28T20:54:19.087Z,99.33
2019-02-28T20:56:48.778Z,96.20
2019-02-28T20:59:18.483Z,99.60
2019-02-28T21:01:48.119Z,91.53
2019-02-28T21:04:17.810Z,109.67
2019-02-28T21:06:47.536Z,100.60
2019-02-28T21:09:17.874Z,98.13
2019-02-28T21:11:47.652Z,101.63
2019-02-28T21:14:17.311Z,109.43
2019-02-28T21:16:47.065Z,102.97
2019-02-28T21:19:16.733Z,93.20
2019-02-28T21:21:46.409Z,94.47
2019-02-28T21:24:16.173Z,91.10
2019-02-28T21:26:45.871Z,93.13
2019-02-28T21:29:15.526Z,89.90
2019-02-28T21:31:45.233Z,82.13
2019-02-28T21:34:15.059Z,98.90
2019-02-28T21:36:44.798Z,93.93
2019-02-28T21:39:15.463Z,95.90
2019-02-28T21:41:46.855Z,91.53
2019-02-28T21:44:16.522Z,93.87
2019-02-28T21:46:46.345Z,91.30
2019-02-28T21:49:15.959Z,102.43
2019-02-28T21:51:45.684Z,92.77
2019-02-28T21:54:16.489Z,89.23
2019-02-28T21:56:46.126Z,98.70
2019-02-28T21:59:15.744Z,94.43
2019-02-28T22:01:45.414Z,96.40
2019-02-28T22:04:15.183Z,97.97
2019-02-28T22:06:44.894Z,94.53
2019-02-28T22:09:14.506Z,84.33
2019-02-28T22:11:44.124Z,93.63
2019-02-28T22:14:13.865Z,89.03
2019-02-28T22:16:43.549Z,84.77
2019-02-28T22:19:13.174Z,100.57
2019-02-28T22:21:42.840Z,92.37
2019-02-28T22:24:12.569Z,99.67
2019-02-28T22:26:42.191Z,91.23
2019-02-28T22:29:11.813Z,90.70
2019-02-28T22:31:57.530Z,95.77
2019-02-28T22:34:49.225Z,95.33
2019-02-28T22:37:20.621Z,98.03
2019-02-28T22:39:50.214Z,85.67
2019-02-28T22:42:22.351Z,94.17
2019-02-28T22:44:51.183Z,91.83
2019-02-28T22:47:20.792Z,98.73
2019-02-28T22:49:50.430Z,91.80
2019-02-28T22:52:20.091Z,88.63
2019-02-28T22:54:49.792Z,98.77
2019-02-28T22:57:19.419Z,99.60
2019-02-28T22:59:49.052Z,87.60
2019-02-28T23:02:19.480Z,86.10
2019-02-28T23:04:49.259Z,87.73
2019-02-28T23:07:18.908Z,87.93
2019-02-28T23:09:48.512Z,78.73
2019-02-28T23:12:18.115Z,85.10
2019-02-28T23:14:47.788Z,84.83
2019-02-28T23:17:17.413Z,89.23
2019-02-28T23:19:47.056Z,84.40
2019-02-28T23:22:16.934Z,86.63
2019-02-28T23:24:46.680Z,83.17
2019-02-28T23:27:17.847Z,82.60
2019-02-28T23:30:22.042Z,74.97
2019-02-28T23:33:03.227Z,81.60
2019-02-28T23:35:35.872Z,76.13
2019-02-28T23:38:05.658Z,69.27
2019-02-28T23:40:35.344Z,72.57
2019-02-28T23:43:05.235Z,63.67
2019-02-28T23:45:34.849Z,60.77
2019-02-28T23:48:04.587Z,68.93
2019-02-28T23:50:34.154Z,72.83
2019-02-28T23:53:03.885Z,81.57
2019-02-28T23:55:34.564Z,67.83
2019-02-28T23:58:04.178Z,73.90
